sensor_id;sensor_type;location;lat;lon;timestamp;P1;durP1;ratioP1;P2;durP2;ratioP2
76259;SDS011;65076;52.362;6.588;2024-01-25T00:01:16;17.77;;;2.63;;
76259;SDS011;65076;52.362;6.588;2024-01-25T00:11:16;20.30;;;3.40;;
76259;SDS011;65076;52.362;6.588;2024-01-25T00:13:48;17.30;;;2.95;;
76259;SDS011;65076;52.362;6.588;2024-01-25T00:29:00;11.35;;;2.70;;
76259;SDS011;65076;52.362;6.588;2024-01-25T00:34:01;15.25;;;2.63;;
76259;SDS011;65076;52.362;6.588;2024-01-25T00:39:02;19.73;;;3.70;;
76259;SDS011;65076;52.362;6.588;2024-01-25T00:41:35;20.20;;;4.18;;
76259;SDS011;65076;52.362;6.588;2024-01-25T00:49:11;20.73;;;2.92;;
76259;SDS011;65076;52.362;6.588;2024-01-25T00:56:44;12.48;;;2.35;;
76259;SDS011;65076;52.362;6.588;2024-01-25T01:04:20;21.67;;;3.28;;
76259;SDS011;65076;52.362;6.588;2024-01-25T01:11:52;15.70;;;2.40;;
76259;SDS011;65076;52.362;6.588;2024-01-25T01:14:22;19.95;;;2.97;;
76259;SDS011;65076;52.362;6.588;2024-01-25T01:21:57;14.10;;;2.97;;
76259;SDS011;65076;52.362;6.588;2024-01-25T01:26:55;14.30;;;2.92;;
76259;SDS011;65076;52.362;6.588;2024-01-25T01:34:28;13.73;;;2.55;;
76259;SDS011;65076;52.362;6.588;2024-01-25T01:39:32;16.48;;;3.30;;
76259;SDS011;65076;52.362;6.588;2024-01-25T01:47:01;13.02;;;3.28;;
76259;SDS011;65076;52.362;6.588;2024-01-25T01:57:03;16.83;;;2.25;;
76259;SDS011;65076;52.362;6.588;2024-01-25T02:02:00;12.07;;;2.08;;
76259;SDS011;65076;52.362;6.588;2024-01-25T02:09:32;19.40;;;3.75;;
76259;SDS011;65076;52.362;6.588;2024-01-25T02:14:37;17.08;;;3.70;;
76259;SDS011;65076;52.362;6.588;2024-01-25T02:19:36;15.68;;;2.88;;
76259;SDS011;65076;52.362;6.588;2024-01-25T02:24:39;17.17;;;3.15;;
76259;SDS011;65076;52.362;6.588;2024-01-25T02:29:39;15.93;;;2.70;;
76259;SDS011;65076;52.362;6.588;2024-01-25T02:39:45;14.50;;;2.88;;
76259;SDS011;65076;52.362;6.588;2024-01-25T02:44:45;20.50;;;4.25;;
76259;SDS011;65076;52.362;6.588;2024-01-25T02:54:56;18.45;;;3.20;;
76259;SDS011;65076;52.362;6.588;2024-01-25T03:02:31;16.27;;;3.53;;
76259;SDS011;65076;52.362;6.588;2024-01-25T03:10:07;18.45;;;2.70;;
76259;SDS011;65076;52.362;6.588;2024-01-25T03:15:09;13.98;;;2.63;;
76259;SDS011;65076;52.362;6.588;2024-01-25T03:20:11;15.23;;;2.90;;
76259;SDS011;65076;52.362;6.588;2024-01-25T03:22:43;14.68;;;2.47;;
76259;SDS011;65076;52.362;6.588;2024-01-25T03:27:46;19.77;;;3.38;;
76259;SDS011;65076;52.362;6.588;2024-01-25T03:32:46;16.67;;;3.80;;
76259;SDS011;65076;52.362;6.588;2024-01-25T03:35:18;12.25;;;1.75;;
76259;SDS011;65076;52.362;6.588;2024-01-25T03:45:51;13.85;;;2.22;;
76259;SDS011;65076;52.362;6.588;2024-01-25T04:03:31;15.48;;;2.80;;
76259;SDS011;65076;52.362;6.588;2024-01-25T04:08:31;13.70;;;2.40;;
76259;SDS011;65076;52.362;6.588;2024-01-25T04:11:04;23.77;;;3.55;;
76259;SDS011;65076;52.362;6.588;2024-01-25T04:26:14;16.63;;;2.65;;
76259;SDS011;65076;52.362;6.588;2024-01-25T04:28:46;22.05;;;3.25;;
76259;SDS011;65076;52.362;6.588;2024-01-25T04:36:21;16.45;;;2.40;;
76259;SDS011;65076;52.362;6.588;2024-01-25T04:41:22;24.20;;;3.10;;
76259;SDS011;65076;52.362;6.588;2024-01-25T04:43:54;12.75;;;2.55;;
76259;SDS011;65076;52.362;6.588;2024-01-25T04:51:29;16.73;;;4.15;;
76259;SDS011;65076;52.362;6.588;2024-01-25T04:56:29;16.13;;;3.22;;
76259;SDS011;65076;52.362;6.588;2024-01-25T04:59:03;18.52;;;2.33;;
76259;SDS011;65076;52.362;6.588;2024-01-25T05:11:41;14.63;;;3.22;;
76259;SDS011;65076;52.362;6.588;2024-01-25T05:14:14;16.48;;;2.58;;
76259;SDS011;65076;52.362;6.588;2024-01-25T05:21:47;17.48;;;3.53;;
76259;SDS011;65076;52.362;6.588;2024-01-25T05:29:14;17.52;;;3.20;;
76259;SDS011;65076;52.362;6.588;2024-01-25T05:34:15;13.88;;;3.58;;
76259;SDS011;65076;52.362;6.588;2024-01-25T05:44:21;15.65;;;2.40;;
76259;SDS011;65076;52.362;6.588;2024-01-25T05:49:21;19.23;;;2.67;;
76259;SDS011;65076;52.362;6.588;2024-01-25T05:51:53;13.80;;;2.83;;
76259;SDS011;65076;52.362;6.588;2024-01-25T05:59:27;18.90;;;3.20;;
76259;SDS011;65076;52.362;6.588;2024-01-25T06:04:27;11.38;;;2.72;;
76259;SDS011;65076;52.362;6.588;2024-01-25T06:06:59;10.82;;;3.63;;
76259;SDS011;65076;52.362;6.588;2024-01-25T06:09:33;17.25;;;2.95;;
76259;SDS011;65076;52.362;6.588;2024-01-25T06:17:08;18.05;;;3.13;;
76259;SDS011;65076;52.362;6.588;2024-01-25T06:22:10;14.02;;;2.30;;
76259;SDS011;65076;52.362;6.588;2024-01-25T06:32:08;17.70;;;3.00;;
76259;SDS011;65076;52.362;6.588;2024-01-25T06:37:08;19.08;;;3.17;;
76259;SDS011;65076;52.362;6.588;2024-01-25T06:47:18;18.52;;;3.22;;
76259;SDS011;65076;52.362;6.588;2024-01-25T06:52:18;21.48;;;3.03;;
76259;SDS011;65076;52.362;6.588;2024-01-25T06:54:50;11.70;;;1.77;;
76259;SDS011;65076;52.362;6.588;2024-01-25T06:59:55;21.17;;;3.80;;
76259;SDS011;65076;52.362;6.588;2024-01-25T07:07:30;28.48;;;8.50;;
76259;SDS011;65076;52.362;6.588;2024-01-25T07:20:01;15.57;;;5.43;;
76259;SDS011;65076;52.362;6.588;2024-01-25T07:27:33;11.38;;;2.53;;
76259;SDS011;65076;52.362;6.588;2024-01-25T07:40:09;9.73;;;2.65;;
76259;SDS011;65076;52.362;6.588;2024-01-25T07:42:50;15.63;;;3.05;;
76259;SDS011;65076;52.362;6.588;2024-01-25T07:47:55;16.55;;;3.15;;
76259;SDS011;65076;52.362;6.588;2024-01-25T07:52:55;18.25;;;3.20;;
76259;SDS011;65076;52.362;6.588;2024-01-25T08:03:07;16.73;;;5.47;;
76259;SDS011;65076;52.362;6.588;2024-01-25T08:08:08;21.20;;;5.55;;
76259;SDS011;65076;52.362;6.588;2024-01-25T08:10:40;12.45;;;4.22;;
76259;SDS011;65076;52.362;6.588;2024-01-25T08:30:55;18.58;;;4.93;;
76259;SDS011;65076;52.362;6.588;2024-01-25T08:35:57;26.20;;;6.53;;
76259;SDS011;65076;52.362;6.588;2024-01-25T08:46:01;29.85;;;15.15;;
76259;SDS011;65076;52.362;6.588;2024-01-25T08:48:34;38.45;;;19.00;;
76259;SDS011;65076;52.362;6.588;2024-01-25T08:53:36;30.52;;;11.88;;
76259;SDS011;65076;52.362;6.588;2024-01-25T08:56:09;19.15;;;5.18;;
76259;SDS011;65076;52.362;6.588;2024-01-25T08:58:45;21.85;;;4.75;;
76259;SDS011;65076;52.362;6.588;2024-01-25T09:11:18;16.08;;;5.68;;
76259;SDS011;65076;52.362;6.588;2024-01-25T09:13:49;19.27;;;5.72;;
76259;SDS011;65076;52.362;6.588;2024-01-25T09:18:54;21.38;;;6.68;;
76259;SDS011;65076;52.362;6.588;2024-01-25T09:26:29;14.95;;;3.88;;
76259;SDS011;65076;52.362;6.588;2024-01-25T09:41:35;16.23;;;3.60;;
76259;SDS011;65076;52.362;6.588;2024-01-25T09:49:05;16.17;;;3.20;;
76259;SDS011;65076;52.362;6.588;2024-01-25T09:59:13;15.25;;;3.90;;
76259;SDS011;65076;52.362;6.588;2024-01-25T10:04:14;26.00;;;4.18;;
76259;SDS011;65076;52.362;6.588;2024-01-25T10:06:48;13.35;;;3.85;;
76259;SDS011;65076;52.362;6.588;2024-01-25T10:14:19;13.50;;;2.85;;
76259;SDS011;65076;52.362;6.588;2024-01-25T10:19:19;15.13;;;3.60;;
76259;SDS011;65076;52.362;6.588;2024-01-25T10:26:54;19.45;;;3.95;;
76259;SDS011;65076;52.362;6.588;2024-01-25T10:29:30;20.58;;;3.78;;
76259;SDS011;65076;52.362;6.588;2024-01-25T10:37:00;21.23;;;3.72;;
76259;SDS011;65076;52.362;6.588;2024-01-25T10:42:02;14.38;;;3.05;;
76259;SDS011;65076;52.362;6.588;2024-01-25T10:44:36;20.55;;;4.15;;
76259;SDS011;65076;52.362;6.588;2024-01-25T10:52:07;21.58;;;4.22;;
76259;SDS011;65076;52.362;6.588;2024-01-25T10:57:09;13.98;;;4.40;;
76259;SDS011;65076;52.362;6.588;2024-01-25T10:59:44;20.83;;;6.22;;
76259;SDS011;65076;52.362;6.588;2024-01-25T11:07:15;26.17;;;4.97;;
76259;SDS011;65076;52.362;6.588;2024-01-25T11:12:17;17.85;;;4.03;;
76259;SDS011;65076;52.362;6.588;2024-01-25T11:22:34;22.25;;;4.63;;
76259;SDS011;65076;52.362;6.588;2024-01-25T11:27:34;16.50;;;5.07;;
76259;SDS011;65076;52.362;6.588;2024-01-25T11:30:10;16.52;;;4.18;;
76259;SDS011;65076;52.362;6.588;2024-01-25T11:37:43;13.90;;;3.72;;
76259;SDS011;65076;52.362;6.588;2024-01-25T11:47:51;16.77;;;4.35;;
76259;SDS011;65076;52.362;6.588;2024-01-25T11:50:22;14.38;;;3.40;;
76259;SDS011;65076;52.362;6.588;2024-01-25T11:57:53;14.75;;;3.83;;
76259;SDS011;65076;52.362;6.588;2024-01-25T12:02:56;17.95;;;4.03;;
76259;SDS011;65076;52.362;6.588;2024-01-25T12:15:26;17.40;;;5.45;;
76259;SDS011;65076;52.362;6.588;2024-01-25T12:20:29;26.25;;;8.70;;
76259;SDS011;65076;52.362;6.588;2024-01-25T12:25:29;17.48;;;4.40;;
76259;SDS011;65076;52.362;6.588;2024-01-25T12:43:01;19.52;;;5.30;;
76259;SDS011;65076;52.362;6.588;2024-01-25T12:48:01;18.13;;;3.75;;
76259;SDS011;65076;52.362;6.588;2024-01-25T12:50:35;22.65;;;4.00;;
76259;SDS011;65076;52.362;6.588;2024-01-25T12:58:07;20.75;;;3.78;;
76259;SDS011;65076;52.362;6.588;2024-01-25T13:00:40;14.20;;;3.78;;
76259;SDS011;65076;52.362;6.588;2024-01-25T13:08:08;14.60;;;4.63;;
76259;SDS011;65076;52.362;6.588;2024-01-25T13:10:38;18.42;;;3.70;;
76259;SDS011;65076;52.362;6.588;2024-01-25T13:18:13;16.00;;;4.63;;
76259;SDS011;65076;52.362;6.588;2024-01-25T13:25:42;20.75;;;3.70;;
76259;SDS011;65076;52.362;6.588;2024-01-25T13:28:14;18.63;;;3.75;;
76259;SDS011;65076;52.362;6.588;2024-01-25T13:38:18;16.27;;;4.18;;
76259;SDS011;65076;52.362;6.588;2024-01-25T13:43:22;17.75;;;4.10;;
76259;SDS011;65076;52.362;6.588;2024-01-25T13:48:21;16.52;;;3.58;;
76259;SDS011;65076;52.362;6.588;2024-01-25T13:50:53;16.48;;;3.40;;
76259;SDS011;65076;52.362;6.588;2024-01-25T13:58:26;20.35;;;4.28;;
76259;SDS011;65076;52.362;6.588;2024-01-25T14:03:27;14.80;;;3.90;;
76259;SDS011;65076;52.362;6.588;2024-01-25T14:05:59;14.13;;;3.28;;
76259;SDS011;65076;52.362;6.588;2024-01-25T14:13:34;17.10;;;5.43;;
76259;SDS011;65076;52.362;6.588;2024-01-25T14:18:36;15.45;;;3.65;;
76259;SDS011;65076;52.362;6.588;2024-01-25T14:23:39;17.65;;;3.25;;
76259;SDS011;65076;52.362;6.588;2024-01-25T14:26:11;21.42;;;4.35;;
76259;SDS011;65076;52.362;6.588;2024-01-25T14:33:54;19.48;;;4.28;;
76259;SDS011;65076;52.362;6.588;2024-01-25T14:38:57;21.80;;;3.38;;
76259;SDS011;65076;52.362;6.588;2024-01-25T14:41:29;16.60;;;3.53;;
76259;SDS011;65076;52.362;6.588;2024-01-25T14:49:03;16.17;;;3.63;;
76259;SDS011;65076;52.362;6.588;2024-01-25T15:01:34;15.23;;;4.32;;
76259;SDS011;65076;52.362;6.588;2024-01-25T15:04:09;17.65;;;3.53;;
76259;SDS011;65076;52.362;6.588;2024-01-25T15:11:42;18.23;;;4.82;;
76259;SDS011;65076;52.362;6.588;2024-01-25T15:14:14;21.25;;;4.47;;
76259;SDS011;65076;52.362;6.588;2024-01-25T15:16:46;19.50;;;4.93;;
76259;SDS011;65076;52.362;6.588;2024-01-25T15:26:47;20.45;;;4.03;;
76259;SDS011;65076;52.362;6.588;2024-01-25T15:31:47;23.45;;;5.22;;
76259;SDS011;65076;52.362;6.588;2024-01-25T15:34:19;19.25;;;4.32;;
76259;SDS011;65076;52.362;6.588;2024-01-25T15:44:28;16.40;;;4.00;;
76259;SDS011;65076;52.362;6.588;2024-01-25T15:59:41;27.27;;;4.32;;
76259;SDS011;65076;52.362;6.588;2024-01-25T16:07:13;20.70;;;4.38;;
76259;SDS011;65076;52.362;6.588;2024-01-25T16:12:13;14.50;;;4.50;;
76259;SDS011;65076;52.362;6.588;2024-01-25T16:14:50;26.60;;;5.75;;
76259;SDS011;65076;52.362;6.588;2024-01-25T16:22:22;26.73;;;6.20;;
76259;SDS011;65076;52.362;6.588;2024-01-25T16:30:06;22.80;;;6.60;;
76259;SDS011;65076;52.362;6.588;2024-01-25T16:35:07;24.90;;;6.88;;
76259;SDS011;65076;52.362;6.588;2024-01-25T16:40:07;29.17;;;7.28;;
76259;SDS011;65076;52.362;6.588;2024-01-25T16:45:11;27.60;;;7.38;;
76259;SDS011;65076;52.362;6.588;2024-01-25T16:50:12;26.13;;;7.90;;
76259;SDS011;65076;52.362;6.588;2024-01-25T16:52:44;26.08;;;7.70;;
76259;SDS011;65076;52.362;6.588;2024-01-25T17:00:24;29.52;;;8.80;;
76259;SDS011;65076;52.362;6.588;2024-01-25T17:07:57;31.95;;;9.88;;
76259;SDS011;65076;52.362;6.588;2024-01-25T17:20:35;29.25;;;9.88;;
76259;SDS011;65076;52.362;6.588;2024-01-25T17:40:43;36.83;;;13.07;;
76259;SDS011;65076;52.362;6.588;2024-01-25T17:43:16;34.45;;;12.43;;
76259;SDS011;65076;52.362;6.588;2024-01-25T17:50:51;39.10;;;15.20;;
76259;SDS011;65076;52.362;6.588;2024-01-25T17:55:51;31.10;;;10.45;;
76259;SDS011;65076;52.362;6.588;2024-01-25T17:58:24;33.45;;;11.02;;
76259;SDS011;65076;52.362;6.588;2024-01-25T18:06:01;37.03;;;12.70;;
76259;SDS011;65076;52.362;6.588;2024-01-25T18:16:07;34.30;;;12.57;;
76259;SDS011;65076;52.362;6.588;2024-01-25T18:18:39;37.20;;;12.05;;
76259;SDS011;65076;52.362;6.588;2024-01-25T18:26:20;38.58;;;12.60;;
76259;SDS011;65076;52.362;6.588;2024-01-25T18:33:51;34.83;;;12.82;;
76259;SDS011;65076;52.362;6.588;2024-01-25T18:36:23;43.50;;;14.13;;
76259;SDS011;65076;52.362;6.588;2024-01-25T18:58:48;39.80;;;12.88;;
76259;SDS011;65076;52.362;6.588;2024-01-25T19:16:15;35.67;;;11.57;;
76259;SDS011;65076;52.362;6.588;2024-01-25T19:28:40;44.42;;;13.73;;
76259;SDS011;65076;52.362;6.588;2024-01-25T19:31:15;41.55;;;13.60;;
76259;SDS011;65076;52.362;6.588;2024-01-25T19:33:47;49.10;;;14.25;;
76259;SDS011;65076;52.362;6.588;2024-01-25T19:43:47;47.90;;;15.00;;
76259;SDS011;65076;52.362;6.588;2024-01-25T20:03:53;59.03;;;15.80;;
76259;SDS011;65076;52.362;6.588;2024-01-25T20:06:27;46.63;;;12.73;;
76259;SDS011;65076;52.362;6.588;2024-01-25T20:14:01;64.80;;;13.73;;
76259;SDS011;65076;52.362;6.588;2024-01-25T20:19:00;56.85;;;15.48;;
76259;SDS011;65076;52.362;6.588;2024-01-25T20:21:36;65.72;;;15.95;;
76259;SDS011;65076;52.362;6.588;2024-01-25T20:29:09;60.60;;;15.13;;
76259;SDS011;65076;52.362;6.588;2024-01-25T20:31:41;63.20;;;15.55;;
76259;SDS011;65076;52.362;6.588;2024-01-25T20:34:13;48.83;;;13.57;;
76259;SDS011;65076;52.362;6.588;2024-01-25T20:39:20;57.55;;;17.45;;
76259;SDS011;65076;52.362;6.588;2024-01-25T20:46:52;59.75;;;16.23;;
76259;SDS011;65076;52.362;6.588;2024-01-25T20:49:24;58.75;;;16.38;;
76259;SDS011;65076;52.362;6.588;2024-01-25T20:54:31;54.72;;;15.38;;
76259;SDS011;65076;52.362;6.588;2024-01-25T21:02:02;42.80;;;12.88;;
76259;SDS011;65076;52.362;6.588;2024-01-25T21:04:38;38.33;;;12.38;;
76259;SDS011;65076;52.362;6.588;2024-01-25T21:12:24;46.78;;;13.88;;
76259;SDS011;65076;52.362;6.588;2024-01-25T21:19:56;56.90;;;14.60;;
76259;SDS011;65076;52.362;6.588;2024-01-25T21:22:29;52.63;;;14.77;;
76259;SDS011;65076;52.362;6.588;2024-01-25T21:25:09;47.05;;;13.45;;
76259;SDS011;65076;52.362;6.588;2024-01-25T21:32:42;53.05;;;14.25;;
76259;SDS011;65076;52.362;6.588;2024-01-25T21:37:44;47.88;;;13.82;;
76259;SDS011;65076;52.362;6.588;2024-01-25T21:40:16;49.92;;;13.90;;
76259;SDS011;65076;52.362;6.588;2024-01-25T21:47:48;42.13;;;14.18;;
76259;SDS011;65076;52.362;6.588;2024-01-25T21:55:20;47.13;;;13.85;;
76259;SDS011;65076;52.362;6.588;2024-01-25T22:00:20;40.30;;;14.05;;
76259;SDS011;65076;52.362;6.588;2024-01-25T22:02:54;27.33;;;11.45;;
76259;SDS011;65076;52.362;6.588;2024-01-25T22:10:26;36.83;;;12.38;;
76259;SDS011;65076;52.362;6.588;2024-01-25T22:15:26;34.85;;;12.05;;
76259;SDS011;65076;52.362;6.588;2024-01-25T22:30:40;29.75;;;10.63;;
76259;SDS011;65076;52.362;6.588;2024-01-25T22:43:26;32.25;;;11.60;;
76259;SDS011;65076;52.362;6.588;2024-01-25T22:45:59;28.60;;;10.95;;
76259;SDS011;65076;52.362;6.588;2024-01-25T22:53:34;33.70;;;11.10;;
76259;SDS011;65076;52.362;6.588;2024-01-25T23:06:07;28.10;;;10.52;;
76259;SDS011;65076;52.362;6.588;2024-01-25T23:08:42;32.55;;;11.70;;
76259;SDS011;65076;52.362;6.588;2024-01-25T23:16:14;24.67;;;10.32;;
76259;SDS011;65076;52.362;6.588;2024-01-25T23:21:17;31.77;;;11.55;;
76259;SDS011;65076;52.362;6.588;2024-01-25T23:36:34;33.03;;;12.38;;
76259;SDS011;65076;52.362;6.588;2024-01-25T23:39:10;27.92;;;10.32;;
76259;SDS011;65076;52.362;6.588;2024-01-25T23:49:10;36.05;;;11.10;;
76259;SDS011;65076;52.362;6.588;2024-01-25T23:51:44;32.90;;;12.18;;
76259;SDS011;65076;52.362;6.588;2024-01-25T23:56:48;34.35;;;11.85;;
